createdAt,value
2022-11-28T00:00:35.234Z,100802.50
2022-11-28T00:01:58.410Z,100793.78
2022-11-28T00:03:23.205Z,100795.50
2022-11-28T00:04:46.232Z,100789.34
2022-11-28T00:06:10.709Z,100789.34
2022-11-28T00:07:34.928Z,100788.47
2022-11-28T00:09:00.619Z,100789.34
2022-11-28T00:10:32.693Z,100791.28
2022-11-28T00:11:58.325Z,100795.84
2022-11-28T00:13:22.148Z,100788.97
2022-11-28T00:14:44.922Z,100784.59
2022-11-28T00:16:10.608Z,100781.22
2022-11-28T00:17:37.097Z,100775.16
2022-11-28T00:19:01.740Z,100774.41
2022-11-28T00:20:24.011Z,100767.53
2022-11-28T00:21:48.603Z,100764.13
2022-11-28T00:23:13.727Z,100768.84
2022-11-28T00:24:35.990Z,100764.47
2022-11-28T00:26:00.803Z,100766.41
2022-11-28T00:27:25.555Z,100765.69
2022-11-28T00:28:48.977Z,100756.97
2022-11-28T00:30:15.656Z,100761.56
2022-11-28T00:31:43.029Z,100758.16
2022-11-28T00:33:18.386Z,100761.88
2022-11-28T00:36:23.714Z,100764.88
2022-11-28T00:37:45.839Z,100760.56
2022-11-28T00:39:07.075Z,100763.31
2022-11-28T00:40:30.274Z,100757.38
2022-11-28T00:41:52.717Z,100758.22
2022-11-28T00:43:14.036Z,100760.28
2022-11-28T00:44:37.971Z,100754.97
2022-11-28T00:45:59.546Z,100758.56
2022-11-28T00:47:27.984Z,100754.22
2022-11-28T00:48:50.047Z,100762.44
2022-11-28T00:50:13.941Z,100763.50
2022-11-28T00:51:37.224Z,100759.25
2022-11-28T00:53:02.020Z,100763.84
2022-11-28T00:54:23.255Z,100756.94
2022-11-28T00:55:46.337Z,100755.38
2022-11-28T00:57:09.049Z,100760.69
2022-11-28T00:58:30.706Z,100747.50
2022-11-28T00:59:57.478Z,100760.88
2022-11-28T01:01:21.852Z,100750.41
2022-11-28T01:02:44.597Z,100754.13
2022-11-28T01:04:09.913Z,100756.88
2022-11-28T01:05:31.775Z,100754.31
2022-11-28T01:06:54.292Z,100758.06
2022-11-28T01:08:19.071Z,100759.03
2022-11-28T01:09:45.667Z,100752.03
2022-11-28T01:11:20.701Z,100747.06
2022-11-28T01:12:45.720Z,100744.41
2022-11-28T01:14:12.084Z,100744.63
2022-11-28T01:15:40.512Z,100748.22
2022-11-28T01:17:03.288Z,100741.22
2022-11-28T01:18:34.385Z,100736.84
2022-11-28T01:20:00.335Z,100750.13
2022-11-28T01:22:47.267Z,100739.50
2022-11-28T01:24:13.252Z,100738.56
2022-11-28T01:25:40.571Z,100729.53
2022-11-28T01:27:08.942Z,100725.06
2022-11-28T01:28:50.724Z,100722.31
2022-11-28T01:30:22.108Z,100724.00
2022-11-28T01:31:46.082Z,100713.25
2022-11-28T01:33:07.672Z,100710.59
2022-11-28T01:34:30.155Z,100721.94
2022-11-28T01:35:56.206Z,100710.47
2022-11-28T01:37:25.159Z,100703.47
2022-11-28T01:38:50.382Z,100705.28
2022-11-28T01:40:17.212Z,100699.09
2022-11-28T01:41:40.735Z,100715.03
2022-11-28T01:43:03.354Z,100703.81
2022-11-28T01:45:10.921Z,100699.56
2022-11-28T01:46:35.105Z,100699.66
2022-11-28T01:48:03.229Z,100696.28
2022-11-28T01:49:31.607Z,100697.25
2022-11-28T01:50:58.276Z,100700.13
2022-11-28T01:52:20.969Z,100698.56
2022-11-28T01:53:51.717Z,100699.50
2022-11-28T01:55:16.919Z,100692.59
2022-11-28T01:56:47.317Z,100694.31
2022-11-28T01:58:11.245Z,100695.25
2022-11-28T01:59:37.841Z,100688.28
2022-11-28T02:01:00.641Z,100686.44
2022-11-28T02:02:30.096Z,100689.09
2022-11-28T02:04:06.139Z,100683.94
2022-11-28T02:05:28.683Z,100683.06
2022-11-28T02:06:51.232Z,100686.59
2022-11-28T02:08:13.716Z,100681.28
2022-11-28T02:09:44.174Z,100676.06
2022-11-28T02:11:36.155Z,100683.19
2022-11-28T02:13:15.392Z,100677.88
2022-11-28T02:15:06.205Z,100668.19
2022-11-28T02:16:43.735Z,100666.38
2022-11-28T02:18:21.183Z,100667.25
2022-11-28T02:20:12.499Z,100661.22
2022-11-28T02:21:49.023Z,100655.06
2022-11-28T02:23:19.539Z,100654.91
2022-11-28T02:24:57.441Z,100657.56
2022-11-28T02:26:42.282Z,100660.13
2022-11-28T02:28:45.796Z,100655.06
2022-11-28T02:30:16.256Z,100643.69
2022-11-28T02:32:08.612Z,100652.50
2022-11-28T02:33:35.327Z,100646.13
2022-11-28T02:35:04.840Z,100651.31
2022-11-28T02:36:33.418Z,100648.53
2022-11-28T02:38:03.703Z,100651.09
2022-11-28T02:39:33.145Z,100647.47
2022-11-28T02:41:01.258Z,100647.34
2022-11-28T02:42:28.523Z,100638.41
2022-11-28T02:44:01.436Z,100640.97
2022-11-28T02:45:32.309Z,100646.28
2022-11-28T02:47:01.296Z,100647.13
2022-11-28T02:48:31.871Z,100645.31
2022-11-28T02:49:59.802Z,100646.06
2022-11-28T02:51:28.581Z,100648.72
2022-11-28T02:52:54.629Z,100651.25
2022-11-28T02:54:18.917Z,100642.44
2022-11-28T02:55:41.657Z,100645.22
2022-11-28T02:57:03.613Z,100646.06
2022-11-28T02:58:25.362Z,100652.56
2022-11-28T02:59:48.815Z,100645.44
2022-11-28T03:01:19.400Z,100642.06
2022-11-28T03:02:40.611Z,100640.25
2022-11-28T03:04:21.912Z,100650.00
2022-11-28T03:05:48.473Z,100642.88
2022-11-28T03:07:26.116Z,100647.25
2022-11-28T03:09:03.214Z,100640.38
2022-11-28T03:10:35.089Z,100643.88
2022-11-28T03:12:10.814Z,100638.66
2022-11-28T03:13:41.534Z,100637.81
2022-11-28T03:15:06.592Z,100636.97
2022-11-28T03:16:39.297Z,100630.94
2022-11-28T03:18:08.975Z,100630.94
2022-11-28T03:19:37.187Z,100629.09
2022-11-28T03:21:07.904Z,100630.09
2022-11-28T03:22:35.093Z,100624.78
2022-11-28T03:24:01.499Z,100622.13
2022-11-28T03:25:28.684Z,100622.13
2022-11-28T03:26:57.360Z,100622.97
2022-11-28T03:28:25.179Z,100621.88
2022-11-28T03:29:54.191Z,100628.88
2022-11-28T03:31:19.228Z,100626.22
2022-11-28T03:32:45.918Z,100629.63
2022-11-28T03:34:18.496Z,100620.69
2022-11-28T03:35:50.696Z,100622.38
2022-11-28T03:37:19.511Z,100613.56
2022-11-28T03:38:44.596Z,100615.50
2022-11-28T03:40:10.198Z,100620.81
2022-11-28T03:41:37.095Z,100612.94
2022-11-28T03:43:01.861Z,100612.94
2022-11-28T03:44:29.389Z,100616.47
2022-11-28T03:45:55.859Z,100609.34
2022-11-28T03:47:17.988Z,100601.25
2022-11-28T03:48:42.788Z,100611.03
2022-11-28T03:50:12.542Z,100603.91
2022-11-28T03:51:40.025Z,100597.66
2022-11-28T03:53:09.112Z,100597.66
2022-11-28T03:54:35.744Z,100598.47
2022-11-28T03:56:06.410Z,100592.19
2022-11-28T03:57:35.067Z,100599.31
2022-11-28T03:59:06.105Z,100598.38
2022-11-28T04:00:33.587Z,100592.94
2022-11-28T04:02:12.517Z,100592.94
2022-11-28T04:03:47.672Z,100591.13
2022-11-28T04:05:41.945Z,100593.78
2022-11-28T04:07:22.964Z,100592.81
2022-11-28T04:08:54.249Z,100597.16
2022-11-28T04:10:22.440Z,100590.03
2022-11-28T04:11:52.430Z,100592.59
2022-11-28T04:13:35.222Z,100586.31
2022-11-28T04:15:05.691Z,100584.63
2022-11-28T04:16:35.716Z,100584.53
2022-11-28T04:18:02.539Z,100578.22
2022-11-28T04:19:30.686Z,100576.56
2022-11-28T04:20:59.702Z,100578.34
2022-11-28T04:22:24.969Z,100578.47
2022-11-28T04:23:49.919Z,100586.53
2022-11-28T04:25:15.544Z,100585.69
2022-11-28T04:26:42.714Z,100578.72
2022-11-28T04:28:09.620Z,100577.13
2022-11-28T04:29:36.035Z,100581.56
2022-11-28T04:31:02.962Z,100579.91
2022-11-28T04:32:30.541Z,100578.06
2022-11-28T04:34:45.648Z,100584.22
2022-11-28T04:36:13.807Z,100582.31
2022-11-28T04:37:40.146Z,100577.72
2022-11-28T04:39:03.038Z,100574.09
2022-11-28T04:40:27.164Z,100572.31
2022-11-28T04:41:56.082Z,100575.81
2022-11-28T04:43:22.360Z,100574.25
2022-11-28T04:44:59.429Z,100576.75
2022-11-28T04:46:29.224Z,100572.31
2022-11-28T04:47:52.417Z,100578.47
2022-11-28T04:49:15.554Z,100574.00
2022-11-28T04:50:43.954Z,100575.81
2022-11-28T04:52:10.282Z,100571.44
2022-11-28T04:53:38.437Z,100574.97
2022-11-28T04:55:07.367Z,100577.50
2022-11-28T04:56:37.639Z,100573.91
2022-11-28T04:58:12.010Z,100577.28
2022-11-28T04:59:37.503Z,100572.69
2022-11-28T05:01:23.577Z,100569.91
2022-11-28T05:02:59.643Z,100568.09
2022-11-28T05:04:21.747Z,100568.00
2022-11-28T05:05:45.985Z,100568.72
2022-11-28T05:07:09.662Z,100569.56
2022-11-28T05:08:34.907Z,100575.63
2022-11-28T05:09:57.845Z,100571.00
2022-11-28T05:11:20.242Z,100566.69
2022-11-28T05:12:42.346Z,100564.75
2022-11-28T05:14:03.616Z,100563.66
2022-11-28T05:15:26.000Z,100567.06
2022-11-28T05:16:48.508Z,100573.94
2022-11-28T05:18:13.011Z,100564.06
2022-11-28T05:19:35.813Z,100574.31
2022-11-28T05:20:59.167Z,100573.22
2022-11-28T05:22:20.882Z,100573.13
2022-11-28T05:23:46.288Z,100579.16
2022-11-28T05:25:10.727Z,100581.72
2022-11-28T05:26:34.348Z,100573.59
2022-11-28T05:27:55.318Z,100580.75
2022-11-28T05:29:17.497Z,100581.56
2022-11-28T05:30:39.931Z,100581.81
2022-11-28T05:32:01.956Z,100572.03
2022-11-28T05:33:23.517Z,100580.84
2022-11-28T05:34:45.991Z,100572.03
2022-11-28T05:36:13.225Z,100575.53
2022-11-28T05:37:35.765Z,100572.88
2022-11-28T05:39:00.173Z,100569.38
2022-11-28T05:40:22.219Z,100571.09
2022-11-28T05:41:44.532Z,100573.59
2022-11-28T05:43:06.155Z,100567.44
2022-11-28T05:44:28.339Z,100565.38
2022-11-28T05:45:50.338Z,100564.31
2022-11-28T05:47:12.696Z,100569.41
2022-11-28T05:48:33.531Z,100568.44
2022-11-28T05:49:55.632Z,100563.84
2022-11-28T05:51:18.130Z,100563.84
2022-11-28T05:52:40.546Z,100558.41
2022-11-28T05:54:03.905Z,100556.59
2022-11-28T05:55:27.681Z,100558.28
2022-11-28T05:56:49.982Z,100562.66
2022-11-28T05:58:16.605Z,100566.16
2022-11-28T05:59:45.390Z,100557.44
2022-11-28T06:01:11.766Z,100553.94
2022-11-28T06:06:15.292Z,100551.38
2022-11-28T06:08:56.369Z,100551.38
2022-11-28T06:11:02.034Z,100544.41
2022-11-28T06:12:30.979Z,100544.75
2022-11-28T06:17:06.199Z,100542.78
2022-11-28T06:18:49.616Z,100538.47
2022-11-28T06:21:08.374Z,100546.53
2022-11-28T06:23:04.203Z,100548.47
2022-11-28T06:27:32.742Z,100533.75
2022-11-28T06:29:41.729Z,100538.19
2022-11-28T06:34:44.017Z,100537.59
2022-11-28T06:36:46.078Z,100541.94
2022-11-28T06:38:46.755Z,100541.81
2022-11-28T06:43:21.285Z,100540.63
2022-11-28T07:00:11.806Z,100530.97
2022-11-28T07:03:06.335Z,100534.81
2022-11-28T07:05:29.521Z,100533.34
2022-11-28T07:09:58.965Z,100534.84
2022-11-28T07:11:33.891Z,100539.16
2022-11-28T07:13:05.323Z,100533.13
2022-11-28T07:14:37.295Z,100532.38
2022-11-28T07:16:23.459Z,100537.59
2022-11-28T07:17:59.768Z,100537.50
2022-11-28T07:19:33.355Z,100534.59
2022-11-28T07:21:12.912Z,100540.63
2022-11-28T07:23:00.030Z,100530.84
2022-11-28T07:24:36.971Z,100537.84
2022-11-28T07:26:03.176Z,100532.41
2022-11-28T07:27:55.243Z,100531.44
2022-11-28T07:29:20.928Z,100535.19
2022-11-28T07:31:11.845Z,100532.53
2022-11-28T07:32:51.908Z,100525.53
2022-11-28T07:34:14.937Z,100531.78
2022-11-28T07:35:38.715Z,100523.81
2022-11-28T07:37:06.367Z,100532.66
2022-11-28T07:38:30.041Z,100525.38
2022-11-28T07:40:02.547Z,100528.91
2022-11-28T07:41:31.373Z,100531.44
2022-11-28T07:42:56.742Z,100531.91
2022-11-28T07:44:23.399Z,100524.56
2022-11-28T07:46:00.578Z,100525.78
2022-11-28T07:47:26.948Z,100523.47
2022-11-28T07:48:51.359Z,100516.97
2022-11-28T07:50:13.832Z,100518.16
2022-11-28T07:51:36.876Z,100526.50
2022-11-28T07:53:07.167Z,100519.97
2022-11-28T07:54:29.949Z,100519.59
2022-11-28T07:55:52.595Z,100516.56
2022-11-28T07:57:18.981Z,100517.88
2022-11-28T07:58:42.516Z,100512.94
2022-11-28T08:00:10.893Z,100517.75
2022-11-28T08:01:36.994Z,100523.31
2022-11-28T08:03:02.251Z,100508.66
2022-11-28T08:04:26.165Z,100508.13
2022-11-28T08:05:49.957Z,100508.75
2022-11-28T08:07:21.665Z,100514.63
2022-11-28T08:08:45.620Z,100508.22
2022-11-28T08:10:16.351Z,100507.00
2022-11-28T08:11:54.742Z,100497.19
2022-11-28T08:13:17.088Z,100514.00
2022-11-28T08:14:50.144Z,100510.66
2022-11-28T08:16:18.437Z,100508.09
2022-11-28T08:17:44.086Z,100503.75
2022-11-28T08:19:06.387Z,100507.50
2022-11-28T08:20:28.533Z,100505.09
2022-11-28T08:21:53.965Z,100505.34
2022-11-28T08:23:27.770Z,100502.94
2022-11-28T08:24:57.837Z,100503.06
2022-11-28T08:26:37.013Z,100494.25
2022-11-28T08:28:31.619Z,100496.91
2022-11-28T08:30:19.075Z,100498.47
2022-11-28T08:32:10.753Z,100493.72
2022-11-28T08:34:01.691Z,100496.00
2022-11-28T08:38:37.417Z,100493.31
2022-11-28T08:40:33.950Z,100492.06
2022-11-28T08:42:21.231Z,100486.25
2022-11-28T08:44:09.697Z,100486.19
2022-11-28T08:45:39.801Z,100477.69
2022-11-28T08:47:02.337Z,100477.84
2022-11-28T08:48:28.249Z,100480.97
2022-11-28T08:49:54.324Z,100488.00
2022-11-28T08:51:18.726Z,100475.91
2022-11-28T08:52:41.476Z,100483.19
2022-11-28T08:54:06.410Z,100479.78
2022-11-28T08:55:32.154Z,100474.75
2022-11-28T08:56:54.839Z,100480.19
2022-11-28T08:58:17.124Z,100477.41
2022-11-28T08:59:39.507Z,100477.13
2022-11-28T09:01:04.316Z,100474.47
2022-11-28T09:02:31.006Z,100465.75
2022-11-28T09:04:03.814Z,100465.06
2022-11-28T09:05:29.758Z,100470.78
2022-11-28T09:07:02.928Z,100469.22
2022-11-28T09:08:45.459Z,100471.06
2022-11-28T09:10:15.219Z,100466.41
2022-11-28T09:11:50.319Z,100458.75
2022-11-28T09:13:38.583Z,100454.22
2022-11-28T09:15:14.263Z,100449.56
2022-11-28T09:16:53.915Z,100450.16
2022-11-28T09:18:29.410Z,100448.94
2022-11-28T09:20:04.797Z,100455.81
2022-11-28T09:21:37.870Z,100450.34
2022-11-28T09:23:06.590Z,100451.63
2022-11-28T09:25:02.458Z,100453.59
2022-11-28T09:30:29.191Z,100451.75
2022-11-28T09:38:23.523Z,100440.09
2022-11-28T09:40:11.933Z,100443.00
2022-11-28T09:42:00.969Z,100445.97
2022-11-28T09:43:33.744Z,100442.47
2022-11-28T09:45:03.598Z,100439.66
2022-11-28T09:46:35.986Z,100444.31
2022-11-28T09:50:58.701Z,100422.53
2022-11-28T09:52:41.304Z,100413.09
2022-11-28T09:56:39.439Z,100410.50
2022-11-28T09:58:35.461Z,100414.28
2022-11-28T10:03:10.914Z,100406.94
2022-11-28T10:04:44.183Z,100403.41
2022-11-28T10:06:21.648Z,100395.97
2022-11-28T10:08:05.362Z,100404.97
2022-11-28T10:09:43.470Z,100399.09
2022-11-28T10:11:22.300Z,100392.22
2022-11-28T10:13:05.378Z,100395.72
2022-11-28T10:15:03.456Z,100400.06
2022-11-28T10:16:44.310Z,100395.56
2022-11-28T10:18:21.741Z,100390.81
2022-11-28T10:19:56.943Z,100391.13
2022-11-28T10:21:29.919Z,100389.56
2022-11-28T10:22:59.006Z,100385.38
2022-11-28T10:24:27.398Z,100382.97
2022-11-28T10:25:55.003Z,100384.97
2022-11-28T10:27:22.574Z,100379.03
2022-11-28T10:28:52.694Z,100369.63
2022-11-28T10:30:22.809Z,100375.44
2022-11-28T10:31:47.246Z,100371.34
2022-11-28T10:33:21.828Z,100370.94
2022-11-28T10:34:51.098Z,100372.19
2022-11-28T10:36:22.662Z,100377.84
2022-11-28T10:37:51.500Z,100373.63
2022-11-28T10:39:15.283Z,100371.25
2022-11-28T10:40:44.410Z,100374.03
2022-11-28T10:42:16.834Z,100368.16
2022-11-28T10:43:53.937Z,100366.75
2022-11-28T10:45:24.819Z,100363.38
2022-11-28T10:46:58.397Z,100360.16
2022-11-28T10:48:40.149Z,100356.78
2022-11-28T10:50:08.335Z,100356.06
2022-11-28T10:51:39.737Z,100342.19
2022-11-28T10:53:07.840Z,100356.66
2022-11-28T10:54:53.553Z,100356.91
2022-11-28T10:56:32.953Z,100352.88
2022-11-28T10:58:05.639Z,100344.16
2022-11-28T10:59:37.933Z,100356.78
2022-11-28T11:01:03.743Z,100349.06
2022-11-28T11:02:35.299Z,100353.00
2022-11-28T11:04:10.365Z,100347.94
2022-11-28T11:05:35.213Z,100342.75
2022-11-28T11:07:10.593Z,100345.56
2022-11-28T11:08:37.271Z,100344.84
2022-11-28T11:10:03.950Z,100345.56
2022-11-28T11:11:28.964Z,100346.41
2022-11-28T11:12:53.794Z,100345.28
2022-11-28T11:14:16.107Z,100345.16
2022-11-28T11:15:38.559Z,100340.22
2022-11-28T11:17:01.066Z,100340.78
2022-11-28T11:18:26.529Z,100336.84
2022-11-28T11:19:49.519Z,100332.06
2022-11-28T11:21:19.047Z,100334.31
2022-11-28T11:22:41.448Z,100333.06
2022-11-28T11:24:17.386Z,100328.25
2022-11-28T11:25:48.138Z,100329.66
2022-11-28T11:27:19.411Z,100326.56
2022-11-28T11:28:45.185Z,100319.94
2022-11-28T11:30:19.980Z,100318.66
2022-11-28T11:31:46.270Z,100321.88
2022-11-28T11:33:17.264Z,100323.41
2022-11-28T11:34:45.586Z,100321.44
2022-11-28T11:36:23.935Z,100317.81
2022-11-28T11:37:46.416Z,100314.00
2022-11-28T11:39:22.206Z,100306.84
2022-11-28T11:40:48.078Z,100312.00
2022-11-28T11:42:21.528Z,100308.25
2022-11-28T11:43:48.655Z,100306.53
2022-11-28T11:45:34.533Z,100311.88
2022-11-28T11:47:03.708Z,100306.53
2022-11-28T11:48:37.152Z,100303.16
2022-11-28T11:50:19.290Z,100306.84
2022-11-28T11:51:43.167Z,100310.47
2022-11-28T11:53:14.577Z,100292.78
2022-11-28T11:54:39.604Z,100301.78
2022-11-28T11:56:04.767Z,100306.25
2022-11-28T11:57:34.389Z,100295.75
2022-11-28T11:59:00.495Z,100295.03
2022-11-28T12:00:27.571Z,100293.38
2022-11-28T12:02:01.537Z,100291.66
2022-11-28T12:03:34.145Z,100286.75
2022-11-28T12:05:02.694Z,100286.94
2022-11-28T12:06:29.650Z,100284.69
2022-11-28T12:08:02.638Z,100291.00
2022-11-28T12:09:40.878Z,100279.78
2022-11-28T12:11:17.444Z,100280.19
2022-11-28T12:12:40.462Z,100286.66
2022-11-28T12:14:29.081Z,100284.44
2022-11-28T12:16:00.483Z,100281.06
2022-11-28T12:17:50.803Z,100276.16
2022-11-28T12:19:31.828Z,100279.81
2022-11-28T12:21:09.946Z,100272.94
2022-11-28T12:22:39.652Z,100276.59
2022-11-28T12:24:22.215Z,100285.72
2022-11-28T12:25:48.626Z,100288.66
2022-11-28T12:27:26.345Z,100281.66
2022-11-28T12:29:13.350Z,100276.44
2022-11-28T12:30:55.423Z,100276.75
2022-11-28T12:32:33.176Z,100281.38
2022-11-28T12:34:18.002Z,100285.31
2022-11-28T12:35:48.794Z,100281.78
2022-11-28T12:37:32.992Z,100281.13
2022-11-28T12:39:16.327Z,100284.03
2022-11-28T12:40:54.992Z,100281.53
2022-11-28T12:42:43.381Z,100276.31
2022-11-28T12:44:17.076Z,100276.31
2022-11-28T12:45:48.357Z,100273.81
2022-11-28T12:47:24.090Z,100280.28
2022-11-28T12:49:03.390Z,100272.41
2022-11-28T12:50:33.798Z,100283.91
2022-11-28T12:52:14.105Z,100274.34
2022-11-28T12:54:05.842Z,100273.78
2022-11-28T12:55:36.287Z,100272.91
2022-11-28T12:57:08.605Z,100270.41
2022-11-28T12:58:36.284Z,100275.88
2022-11-28T13:00:08.973Z,100270.69
2022-11-28T13:01:53.753Z,100275.31
2022-11-28T13:03:49.457Z,100271.97
2022-11-28T13:05:24.426Z,100268.59
2022-11-28T13:06:57.428Z,100269.56
2022-11-28T13:08:48.184Z,100269.69
2022-11-28T13:10:21.836Z,100269.84
2022-11-28T13:11:57.003Z,100267.44
2022-11-28T13:13:26.767Z,100263.13
2022-11-28T13:14:56.957Z,100262.28
2022-11-28T13:16:27.681Z,100259.75
2022-11-28T13:18:03.503Z,100259.88
2022-11-28T13:19:38.278Z,100261.69
2022-11-28T13:21:41.118Z,100264.53
2022-11-28T13:23:29.094Z,100261.97
2022-11-28T13:25:22.439Z,100264.94
2022-11-28T13:27:06.354Z,100262.41
2022-11-28T13:34:45.256Z,100261.25
2022-11-28T13:42:03.495Z,100259.16
2022-11-28T13:49:27.792Z,100258.03
2022-11-28T13:51:30.595Z,100254.66
2022-11-28T13:53:03.034Z,100257.44
2022-11-28T13:54:46.586Z,100261.09
2022-11-28T13:56:30.453Z,100263.06
2022-11-28T13:58:01.206Z,100260.38
2022-11-28T14:01:45.106Z,100263.34
2022-11-28T14:03:17.356Z,100265.16
2022-11-28T14:05:00.383Z,100268.09
2022-11-28T14:06:44.949Z,100267.25
2022-11-28T14:08:08.552Z,100264.72
2022-11-28T14:09:44.971Z,100259.53
2022-11-28T14:11:28.206Z,100264.03
2022-11-28T14:13:13.898Z,100268.50
2022-11-28T14:15:06.894Z,100271.41
2022-11-28T14:16:51.411Z,100271.41
2022-11-28T14:18:56.883Z,100262.75
2022-11-28T14:21:00.301Z,100263.00
2022-11-28T14:23:46.088Z,100265.94
2022-11-28T14:26:16.231Z,100264.38
2022-11-28T14:30:37.222Z,100266.91
2022-11-28T14:32:40.450Z,100268.84
2022-11-28T14:43:44.330Z,100275.25
2022-11-28T14:58:36.176Z,100286.41
2022-11-28T15:00:46.909Z,100281.19
2022-11-28T15:03:01.337Z,100281.31
2022-11-28T15:05:23.618Z,100280.47
2022-11-28T15:07:08.154Z,100280.63
2022-11-28T15:08:57.476Z,100283.28
2022-11-28T15:10:56.680Z,100284.97
2022-11-28T15:15:20.902Z,100290.41
2022-11-28T15:17:37.450Z,100281.47
2022-11-28T15:19:16.692Z,100285.94
2022-11-28T15:20:54.209Z,100287.75
2022-11-28T15:25:46.028Z,100279.53
2022-11-28T15:27:39.758Z,100286.53
2022-11-28T15:29:23.397Z,100287.22
2022-11-28T15:31:41.117Z,100289.06
2022-11-28T15:33:50.882Z,100288.63
2022-11-28T15:35:16.903Z,100287.41
2022-11-28T15:36:40.954Z,100285.34
2022-11-28T15:38:15.566Z,100282.53
2022-11-28T15:39:42.424Z,100281.41
2022-11-28T15:41:30.655Z,100284.78
2022-11-28T15:42:59.037Z,100281.00
2022-11-28T15:44:29.947Z,100282.56
2022-11-28T15:51:59.054Z,100291.16
2022-11-28T15:55:08.722Z,100291.00
2022-11-28T15:57:09.862Z,100290.16
2022-11-28T15:59:45.229Z,100283.84
2022-11-28T16:04:20.335Z,100296.19
2022-11-28T16:05:53.025Z,100285.25
2022-11-28T16:08:27.521Z,100289.59
2022-11-28T16:10:40.585Z,100296.63
2022-11-28T16:12:20.609Z,100293.81
2022-11-28T16:19:41.502Z,100296.47
2022-11-28T16:22:01.689Z,100299.84
2022-11-28T16:23:41.909Z,100295.53
2022-11-28T16:26:09.573Z,100299.84
2022-11-28T16:27:55.339Z,100295.38
2022-11-28T16:31:45.939Z,100297.19
2022-11-28T16:33:38.905Z,100294.41
2022-11-28T16:35:16.840Z,100296.22
2022-11-28T16:49:31.600Z,100292.13
2022-11-28T16:53:51.883Z,100292.13
2022-11-28T16:56:38.446Z,100287.66
2022-11-28T16:58:16.077Z,100296.47
2022-11-28T16:59:48.876Z,100294.53
2022-11-28T17:04:01.215Z,100280.25
2022-11-28T17:05:26.226Z,100284.59
2022-11-28T17:06:49.411Z,100288.09
2022-11-28T17:08:11.635Z,100282.75
2022-11-28T17:09:41.485Z,100287.13
2022-11-28T17:11:03.092Z,100281.81
2022-11-28T17:12:30.614Z,100282.50
2022-11-28T17:13:57.786Z,100288.69
2022-11-28T17:15:23.786Z,100293.84
2022-11-28T17:16:46.618Z,100292.06
2022-11-28T17:18:52.729Z,100285.84
2022-11-28T17:20:15.147Z,100284.91
2022-11-28T17:21:42.395Z,100285.03
2022-11-28T17:23:06.104Z,100284.19
2022-11-28T17:24:31.066Z,100280.69
2022-11-28T17:25:52.324Z,100287.84
2022-11-28T17:27:15.593Z,100290.50
2022-11-28T17:28:37.269Z,100289.63
2022-11-28T17:29:59.790Z,100302.13
2022-11-28T17:31:25.570Z,100289.63
2022-11-28T17:32:49.345Z,100290.63
2022-11-28T17:34:17.227Z,100294.13
2022-11-28T17:35:42.979Z,100302.13
2022-11-28T17:37:06.940Z,100285.44
2022-11-28T17:38:33.906Z,100291.75
2022-11-28T17:40:15.534Z,100289.09
2022-11-28T17:41:37.838Z,100298.03
2022-11-28T17:43:01.374Z,100288.38
2022-11-28T17:44:25.455Z,100286.53
2022-11-28T17:45:49.122Z,100286.53
2022-11-28T17:47:12.295Z,100285.69
2022-11-28T17:48:37.781Z,100285.69
2022-11-28T17:50:00.053Z,100286.53
2022-11-28T17:51:22.477Z,100285.69
2022-11-28T17:52:47.053Z,100279.66
2022-11-28T17:54:09.521Z,100276.16
2022-11-28T17:55:32.052Z,100274.63
2022-11-28T17:56:55.207Z,100284.44
2022-11-28T17:58:20.275Z,100278.25
2022-11-28T17:59:43.099Z,100285.38
2022-11-28T18:01:10.838Z,100274.88
2022-11-28T18:02:35.090Z,100289.88
2022-11-28T18:04:01.256Z,100287.22
2022-11-28T18:05:42.514Z,100297.75
2022-11-28T18:07:04.775Z,100294.09
2022-11-28T18:08:29.967Z,100298.47
2022-11-28T18:09:52.854Z,100300.13
2022-11-28T18:11:18.326Z,100297.47
2022-11-28T18:12:41.499Z,100297.47
2022-11-28T18:14:06.401Z,100307.28
2022-11-28T18:15:34.065Z,100291.44
2022-11-28T18:16:56.965Z,100280.06
2022-11-28T18:18:22.665Z,100286.38
2022-11-28T18:21:30.704Z,100284.00
2022-11-28T18:22:53.518Z,100279.78
2022-11-28T18:24:20.203Z,100287.75
2022-11-28T18:25:45.932Z,100287.88
2022-11-28T18:27:09.352Z,100287.06
2022-11-28T18:28:35.767Z,100283.69
2022-11-28T18:30:01.760Z,100286.47
2022-11-28T18:33:14.514Z,100287.44
2022-11-28T18:34:36.887Z,100288.56
2022-11-28T18:36:11.679Z,100290.38
2022-11-28T18:37:38.032Z,100287.84
2022-11-28T18:39:07.374Z,100285.34
2022-11-28T18:40:34.137Z,100286.28
2022-11-28T18:41:56.562Z,100278.56
2022-11-28T18:43:22.106Z,100284.91
2022-11-28T18:44:44.929Z,100286.84
2022-11-28T18:46:11.045Z,100285.97
2022-11-28T18:47:34.586Z,100281.63
2022-11-28T18:48:58.618Z,100277.41
2022-11-28T18:50:21.048Z,100280.09
2022-11-28T18:51:54.033Z,100281.06
2022-11-28T18:53:18.940Z,100281.31
2022-11-28T18:54:43.529Z,100279.75
2022-11-28T18:56:19.107Z,100276.25
2022-11-28T18:57:44.009Z,100276.53
2022-11-28T18:59:06.322Z,100274.84
2022-11-28T19:00:29.566Z,100278.47
2022-11-28T19:01:52.764Z,100281.25
2022-11-28T19:03:15.268Z,100276.94
2022-11-28T19:04:37.503Z,100282.38
2022-11-28T19:06:01.332Z,100276.34
2022-11-28T19:07:29.244Z,100279.97
2022-11-28T19:08:55.199Z,100281.09
2022-11-28T19:10:18.021Z,100276.03
2022-11-28T19:11:42.295Z,100281.47
2022-11-28T19:13:05.654Z,100275.47
2022-11-28T19:14:28.454Z,100282.72
2022-11-28T19:15:53.922Z,100281.16
2022-11-28T19:17:21.843Z,100280.44
2022-11-28T19:19:05.613Z,100278.91
2022-11-28T19:20:37.699Z,100291.47
2022-11-28T19:22:02.390Z,100286.28
2022-11-28T19:23:26.896Z,100279.41
2022-11-28T19:24:51.737Z,100282.22
2022-11-28T19:26:19.545Z,100284.00
2022-11-28T19:27:46.782Z,100286.81
2022-11-28T19:29:09.113Z,100280.78
2022-11-28T19:30:32.837Z,100288.75
2022-11-28T19:31:56.353Z,100284.41
2022-11-28T19:33:31.581Z,100284.53
2022-11-28T19:35:46.680Z,100283.09
2022-11-28T19:37:20.996Z,100279.59
2022-11-28T19:38:43.569Z,100277.94
2022-11-28T19:40:10.525Z,100283.25
2022-11-28T19:41:38.084Z,100285.06
2022-11-28T19:43:04.325Z,100290.50
2022-11-28T19:44:29.206Z,100290.50
2022-11-28T19:45:57.805Z,100284.34
2022-11-28T19:47:20.683Z,100276.38
2022-11-28T19:48:44.265Z,100277.19
2022-11-28T19:50:11.016Z,100287.00
2022-11-28T19:51:32.722Z,100279.88
2022-11-28T19:52:55.364Z,100288.56
2022-11-28T19:54:27.357Z,100283.25
2022-11-28T19:55:51.503Z,100285.75
2022-11-28T19:57:13.949Z,100287.47
2022-11-28T19:58:38.115Z,100284.66
2022-11-28T20:00:00.956Z,100287.19
2022-11-28T20:01:25.136Z,100290.56
2022-11-28T20:02:50.411Z,100298.41
2022-11-28T20:04:13.851Z,100292.97